Overall — Oak Ridge - Mini

Saturday 26 October 2024 · 75 finishers across every class · 4 laps for the winner

Complete overall finishing order for Oak Ridge - Mini.
Pos No. Rider Class Laps Time Behind Int Pace
1 #99A CASH, CARSON SM 14-15 4 1:08:09 0:00 17:02
2 #19A CAWLEY, MASON SM 14-15 4 1:09:51 +1:42 1:42 17:27
3 #42B LACY, JACK SM 12-13 4 1:10:29 +2:20 0:38 17:37
4 #42A SCHLICKENMEYER, SEAN SM 14-15 4 1:12:00 +3:51 1:31 18:00
5 #63B WALTERS, DALTON SM 12-13 4 1:12:13 +4:04 0:13 18:03
6 #25B HERTZLER, NOAH SM 12-13 4 1:13:18 +5:09 1:05 18:19
7 #24C OLEARY, NOLAN MINI 12-13 4 1:13:51 +5:42 0:33 18:27
8 #21C WIGGINS, MADDIX MINI 12-13 4 1:13:53 +5:44 0:02 18:28
9 #50C JOHNSON, LUCAS MINI 12-13 4 1:14:15 +6:06 0:22 18:33
10 #4C KERN, QUENTIN MINI 12-13 4 1:14:49 +6:40 0:34 18:42
11 #14B MOUNTS, RILEY SM 12-13 4 1:15:21 +7:12 0:32 18:50
12 #42C COLLINS, JAXON MINI 12-13 4 1:15:52 +7:43 0:31 18:58
13 #85B BUCHANAN, TUCKER SM 12-13 4 1:16:20 +8:11 0:28 19:05
14 #51B RICE, DANE SM 12-13 4 1:16:24 +8:15 0:04 19:06
15 #25C TORRES, TRISTIN MINI 12-13 4 1:17:28 +9:19 1:04 19:22
16 #31A MOUNTS, HUNTER SM 14-15 4 1:17:29 +9:20 0:01 19:22
17 #5C MARKHAM, KASEN MINI 12-13 4 1:17:41 +9:32 0:12 19:25
18 #5B BAKKEN, DASH SM 12-13 4 1:18:15 +10:06 0:34 19:33
19 #12D BURKHOLDER, BRADLEY MINI 9-11 4 1:18:15 +10:06 0:00 19:33
20 #22B BAKER, COHEN SM 12-13 4 1:18:20 +10:11 0:05 19:35
21 #23BZ SMITH, GAVIN SM 12-13 4 1:18:22 +10:13 0:02 19:35
22 #52B FOUTZ, KELLEN SM 12-13 4 1:18:24 +10:15 0:02 19:36
23 #44B GEARHART, CADENCE SM 12-13 4 1:20:17 +12:08 1:53 20:04
24 #29C NALLS, COLTON MINI 12-13 4 1:20:20 +12:11 0:03 20:05
25 #93D WEST, WALKER MINI 9-11 4 1:24:29 +16:20 4:09 21:07
26 #26D LILLY, WYATT MINI 9-11 4 1:24:35 +16:26 0:06 21:08
27 #9D PERKINS, KNOXX MINI 9-11 4 1:24:36 +16:27 0:01 21:09
28 #21A COUVILLION, BRAIDYN SM 14-15 4 1:26:23 +18:14 1:47 21:35
29 #33C LILLY, RYDER MINI 12-13 4 1:26:47 +18:38 0:24 21:41
30 #45K SMITH, BOWEN MINI 9-11K 3 1:03:34 1 lap 0:00 21:11
31 #1K DOMAN, HAYDEN MINI 9-11K 3 1:04:44 1 lap 1:10 21:34
32 #24E WINGO, BELLA SM WOMEN 3 1:04:46 1 lap 0:02 21:35
33 #2E HARDMAN, SAVANNAH SM WOMEN 3 1:05:37 1 lap 0:51 21:52
34 #10E PANCAKE, LILLIAN SM WOMEN 3 1:05:46 1 lap 0:09 21:55
35 #30C FAIN, JACKSON MINI 12-13 3 1:06:16 1 lap 0:30 22:05
36 #26K SMITH, HUNTER MINI 9-11K 3 1:06:40 1 lap 0:24 22:13
37 #40K WINN, ADDISON MINI 9-11K 3 1:06:48 1 lap 0:08 22:16
38 #10DZ LAMB, BRANTLEY MINI 9-11 3 1:07:39 1 lap 0:51 22:33
39 #69D LILLY, COLE MINI 9-11 3 1:07:41 1 lap 0:02 22:33
40 #57K WARREN, MASON MINI 9-11K 3 1:07:49 1 lap 0:08 22:36
41 #8E PANCAKE, DELILAH SM WOMEN 3 1:07:58 1 lap 0:09 22:39
42 #51K RICE, HOLTON MINI 9-11K 3 1:08:12 1 lap 0:14 22:44
43 #52A REYNOLDS, LUCAS SM 14-15 3 1:08:43 1 lap 0:31 22:54
44 #8K MUTER, MAX MINI 9-11K 3 1:09:09 1 lap 0:26 23:03
45 #48E LANDRUM, KINLEY SM WOMEN 3 1:09:46 1 lap 0:37 23:15
46 #12EZ PINTO, RYLEIGH SM WOMEN 3 1:10:01 1 lap 0:15 23:20
47 #55D KUEBLER, CADEN MINI 9-11 3 1:10:09 1 lap 0:08 23:23
48 #42K FREEMAN, CANON MINI 9-11K 3 1:10:44 1 lap 0:35 23:34
49 #1DZ JOHANSEN, BLAKE MINI 9-11 3 1:10:50 1 lap 0:06 23:36
50 #27K MARSH, RYDER MINI 9-11K 3 1:11:41 1 lap 0:51 23:53
51 #92EZ MOBLEY, EMILY SM WOMEN 3 1:12:04 1 lap 0:23 24:01
52 #14A TABLER, TITUS SM 14-15 3 1:12:37 1 lap 0:33 24:12
53 #96D MARKHAM, GUNNER MINI 9-11 3 1:13:29 1 lap 0:52 24:29
54 #21D PERRY, DYLAN MINI 9-11 3 1:13:35 1 lap 0:06 24:31
55 #59BZ BRADSHAW, EVERETT SM 12-13 3 1:14:40 1 lap 1:05 24:53
56 #79EZ TURNER, ZOEY SM WOMEN 3 1:17:28 1 lap 2:48 25:49
57 #11K ADAMSON, CASSEL MINI 9-11K 3 1:17:47 1 lap 0:19 25:55
58 #9E PERKINS, GATELYN SM WOMEN 3 1:20:46 1 lap 2:59 26:55
59 #16G SIMON, AMY TRL WOMEN 3 1:21:15 1 lap 0:29 27:05
60 #18K PAYNE, DYLAN MINI 9-11K 3 1:22:24 1 lap 1:09 27:28
61 #74K LOVE, CONNER MINI 9-11K 3 1:22:25 1 lap 0:01 27:28
62 #25K ANTHONY, AIDEN MINI 9-11K 3 1:24:18 1 lap 1:53 28:06
63 #77DZ LAMB, BRYSON MINI 9-11 3 1:25:46 1 lap 1:28 28:35
64 #67E BONANNO, ANGELINA SM WOMEN 3 1:27:14 1 lap 1:28 29:04
65 #1C DAVIS, KALEB MINI 12-13 3 1:27:50 1 lap 0:36 29:16
66 #22K BAKER, CAMDEN MINI 9-11K 3 1:31:01 1 lap 3:11 30:20
67 #2K MEAD, RYLAN MINI 9-11K 3 1:38:20 1 lap 7:19 32:46
68 #54E SHIFFLETT, ALLIJONDR SM WOMEN 3 1:39:23 1 lap 1:03 33:07
69 #13E NICHOLS, ELLA SM WOMEN 2 48:34 2 laps 0:00 24:17
70 #16K SCHILLUMEIT, SOPHIA MINI 9-11K 2 56:43 2 laps 8:09 28:21
71 #69KZ RAE, NICK MINI 9-11K 2 1:13:38 2 laps 16:55 36:49
72 #11A SENTERS, ZEKE SM 14-15 1 23:18 3 laps 0:00 23:18
73 #72CZ MILLER, BRAYDEN MINI 12-13 1 26:29 3 laps 3:11 26:29
74 #59KZ BRADSHAW, SAWYER MINI 9-11K 1 29:04 3 laps 2:35 29:04
75 #50G HARRUP, ANDREA TRL WOMEN 1 36:44 3 laps 7:40 36:44

Ranked the way the series ranks: most laps first, then least time. Behind is the deficit to the winner and is only shown where the lap count matches, because elapsed time says nothing across different lap counts — a rider a lap down shows the laps instead. Int is the gap to the rider immediately ahead.